sensor_id;sensor_type;location;lat;lon;timestamp;P1;durP1;ratioP1;P2;durP2;ratioP2
43996;SDS011;34318;45.818;15.964;2023-01-15T00:01:50;13.45;;;6.50;;
43996;SDS011;34318;45.818;15.964;2023-01-15T00:04:17;8.43;;;6.45;;
43996;SDS011;34318;45.818;15.964;2023-01-15T00:06:44;8.73;;;7.05;;
43996;SDS011;34318;45.818;15.964;2023-01-15T00:09:14;11.00;;;6.55;;
43996;SDS011;34318;45.818;15.964;2023-01-15T00:11:42;12.43;;;6.53;;
43996;SDS011;34318;45.818;15.964;2023-01-15T00:14:09;6.78;;;5.78;;
43996;SDS011;34318;45.818;15.964;2023-01-15T00:16:37;7.07;;;6.15;;
43996;SDS011;34318;45.818;15.964;2023-01-15T00:19:06;8.25;;;6.07;;
43996;SDS011;34318;45.818;15.964;2023-01-15T00:21:33;8.82;;;6.97;;
43996;SDS011;34318;45.818;15.964;2023-01-15T00:24:01;8.68;;;6.15;;
43996;SDS011;34318;45.818;15.964;2023-01-15T00:26:47;6.70;;;6.10;;
43996;SDS011;34318;45.818;15.964;2023-01-15T00:29:33;13.40;;;7.05;;
43996;SDS011;34318;45.818;15.964;2023-01-15T00:32:04;9.00;;;5.95;;
43996;SDS011;34318;45.818;15.964;2023-01-15T00:34:32;10.10;;;6.20;;
43996;SDS011;34318;45.818;15.964;2023-01-15T00:36:59;9.32;;;6.30;;
43996;SDS011;34318;45.818;15.964;2023-01-15T00:39:29;8.70;;;6.10;;
43996;SDS011;34318;45.818;15.964;2023-01-15T00:41:57;7.53;;;5.63;;
43996;SDS011;34318;45.818;15.964;2023-01-15T00:44:24;6.10;;;5.50;;
43996;SDS011;34318;45.818;15.964;2023-01-15T00:46:51;6.10;;;5.50;;
43996;SDS011;34318;45.818;15.964;2023-01-15T00:49:18;9.43;;;6.20;;
43996;SDS011;34318;45.818;15.964;2023-01-15T00:51:45;15.63;;;6.55;;
43996;SDS011;34318;45.818;15.964;2023-01-15T00:54:15;6.20;;;5.60;;
43996;SDS011;34318;45.818;15.964;2023-01-15T00:56:42;7.65;;;5.65;;
43996;SDS011;34318;45.818;15.964;2023-01-15T00:59:09;8.82;;;6.18;;
43996;SDS011;34318;45.818;15.964;2023-01-15T01:01:36;6.00;;;5.28;;
43996;SDS011;34318;45.818;15.964;2023-01-15T01:04:04;7.82;;;6.10;;
43996;SDS011;34318;45.818;15.964;2023-01-15T01:06:31;7.05;;;5.93;;
43996;SDS011;34318;45.818;15.964;2023-01-15T01:08:58;6.35;;;5.70;;
43996;SDS011;34318;45.818;15.964;2023-01-15T01:11:25;12.43;;;6.13;;
43996;SDS011;34318;45.818;15.964;2023-01-15T01:13:58;6.55;;;5.82;;
43996;SDS011;34318;45.818;15.964;2023-01-15T01:18:57;7.40;;;5.68;;
43996;SDS011;34318;45.818;15.964;2023-01-15T01:21:25;7.20;;;5.10;;
43996;SDS011;34318;45.818;15.964;2023-01-15T01:23:52;7.72;;;5.60;;
43996;SDS011;34318;45.818;15.964;2023-01-15T01:26:20;6.15;;;5.15;;
43996;SDS011;34318;45.818;15.964;2023-01-15T01:28:48;6.38;;;5.20;;
43996;SDS011;34318;45.818;15.964;2023-01-15T01:31:15;6.18;;;5.15;;
43996;SDS011;34318;45.818;15.964;2023-01-15T01:33:43;9.55;;;5.40;;
43996;SDS011;34318;45.818;15.964;2023-01-15T01:36:10;8.13;;;5.70;;
43996;SDS011;34318;45.818;15.964;2023-01-15T01:38:37;5.53;;;5.03;;
43996;SDS011;34318;45.818;15.964;2023-01-15T01:41:04;7.15;;;5.10;;
43996;SDS011;34318;45.818;15.964;2023-01-15T01:43:51;6.80;;;5.45;;
43996;SDS011;34318;45.818;15.964;2023-01-15T01:48:45;5.88;;;4.82;;
43996;SDS011;34318;45.818;15.964;2023-01-15T01:51:14;7.55;;;5.55;;
43996;SDS011;34318;45.818;15.964;2023-01-15T01:53:41;5.28;;;4.78;;
43996;SDS011;34318;45.818;15.964;2023-01-15T01:56:08;5.18;;;4.68;;
43996;SDS011;34318;45.818;15.964;2023-01-15T01:58:36;5.75;;;5.25;;
43996;SDS011;34318;45.818;15.964;2023-01-15T02:01:04;5.63;;;4.63;;
43996;SDS011;34318;45.818;15.964;2023-01-15T02:03:33;7.05;;;5.43;;
43996;SDS011;34318;45.818;15.964;2023-01-15T02:06:02;5.80;;;5.20;;
43996;SDS011;34318;45.818;15.964;2023-01-15T02:08:29;5.65;;;5.25;;
43996;SDS011;34318;45.818;15.964;2023-01-15T02:10:58;6.15;;;4.43;;
43996;SDS011;34318;45.818;15.964;2023-01-15T02:13:31;7.00;;;5.05;;
43996;SDS011;34318;45.818;15.964;2023-01-15T02:18:37;4.70;;;4.30;;
43996;SDS011;34318;45.818;15.964;2023-01-15T02:21:09;5.28;;;4.72;;
43996;SDS011;34318;45.818;15.964;2023-01-15T02:28:57;5.38;;;4.88;;
43996;SDS011;34318;45.818;15.964;2023-01-15T02:31:38;5.18;;;4.68;;
43996;SDS011;34318;45.818;15.964;2023-01-15T02:34:19;6.35;;;5.07;;
43996;SDS011;34318;45.818;15.964;2023-01-15T02:36:50;6.22;;;5.00;;
43996;SDS011;34318;45.818;15.964;2023-01-15T02:39:18;5.95;;;5.30;;
43996;SDS011;34318;45.818;15.964;2023-01-15T02:41:47;5.03;;;4.53;;
43996;SDS011;34318;45.818;15.964;2023-01-15T02:44:19;5.20;;;4.70;;
43996;SDS011;34318;45.818;15.964;2023-01-15T02:46:48;4.93;;;4.43;;
43996;SDS011;34318;45.818;15.964;2023-01-15T02:49:16;5.22;;;4.82;;
43996;SDS011;34318;45.818;15.964;2023-01-15T02:51:54;5.68;;;5.15;;
43996;SDS011;34318;45.818;15.964;2023-01-15T02:54:24;4.90;;;4.50;;
43996;SDS011;34318;45.818;15.964;2023-01-15T02:56:53;7.43;;;5.13;;
43996;SDS011;34318;45.818;15.964;2023-01-15T02:59:23;4.90;;;4.47;;
43996;SDS011;34318;45.818;15.964;2023-01-15T03:01:53;7.25;;;4.88;;
43996;SDS011;34318;45.818;15.964;2023-01-15T03:04:37;5.93;;;4.82;;
43996;SDS011;34318;45.818;15.964;2023-01-15T03:07:10;5.30;;;4.70;;
43996;SDS011;34318;45.818;15.964;2023-01-15T03:09:41;5.13;;;4.63;;
43996;SDS011;34318;45.818;15.964;2023-01-15T03:14:51;5.25;;;4.60;;
43996;SDS011;34318;45.818;15.964;2023-01-15T03:17:22;6.97;;;4.78;;
43996;SDS011;34318;45.818;15.964;2023-01-15T03:19:52;5.13;;;4.60;;
43996;SDS011;34318;45.818;15.964;2023-01-15T03:24:50;5.20;;;4.70;;
43996;SDS011;34318;45.818;15.964;2023-01-15T03:27:18;5.15;;;4.65;;
43996;SDS011;34318;45.818;15.964;2023-01-15T03:29:47;5.25;;;4.75;;
43996;SDS011;34318;45.818;15.964;2023-01-15T03:32:15;5.85;;;4.60;;
43996;SDS011;34318;45.818;15.964;2023-01-15T03:34:52;5.53;;;4.88;;
43996;SDS011;34318;45.818;15.964;2023-01-15T03:37:21;4.90;;;4.50;;
43996;SDS011;34318;45.818;15.964;2023-01-15T03:39:48;6.55;;;5.18;;
43996;SDS011;34318;45.818;15.964;2023-01-15T03:45:35;6.20;;;4.88;;
43996;SDS011;34318;45.818;15.964;2023-01-15T03:50:41;6.07;;;4.85;;
43996;SDS011;34318;45.818;15.964;2023-01-15T03:56:00;5.38;;;4.88;;
43996;SDS011;34318;45.818;15.964;2023-01-15T03:58:40;5.93;;;5.15;;
43996;SDS011;34318;45.818;15.964;2023-01-15T04:01:09;6.53;;;4.75;;
43996;SDS011;34318;45.818;15.964;2023-01-15T04:03:39;5.35;;;4.85;;
43996;SDS011;34318;45.818;15.964;2023-01-15T04:06:06;5.03;;;4.53;;
43996;SDS011;34318;45.818;15.964;2023-01-15T04:08:37;5.43;;;4.93;;
43996;SDS011;34318;45.818;15.964;2023-01-15T04:11:05;5.00;;;4.50;;
43996;SDS011;34318;45.818;15.964;2023-01-15T04:13:33;5.32;;;4.82;;
43996;SDS011;34318;45.818;15.964;2023-01-15T04:16:00;5.10;;;4.70;;
43996;SDS011;34318;45.818;15.964;2023-01-15T04:18:27;5.57;;;5.07;;
43996;SDS011;34318;45.818;15.964;2023-01-15T04:20:54;5.45;;;4.95;;
43996;SDS011;34318;45.818;15.964;2023-01-15T04:23:22;6.85;;;4.85;;
43996;SDS011;34318;45.818;15.964;2023-01-15T04:25:49;6.10;;;5.20;;
43996;SDS011;34318;45.818;15.964;2023-01-15T04:28:16;5.22;;;4.72;;
43996;SDS011;34318;45.818;15.964;2023-01-15T04:30:43;6.90;;;5.20;;
43996;SDS011;34318;45.818;15.964;2023-01-15T04:33:11;5.50;;;5.00;;
43996;SDS011;34318;45.818;15.964;2023-01-15T04:35:38;6.03;;;5.53;;
43996;SDS011;34318;45.818;15.964;2023-01-15T04:38:06;5.95;;;4.93;;
43996;SDS011;34318;45.818;15.964;2023-01-15T04:40:33;5.40;;;4.90;;
43996;SDS011;34318;45.818;15.964;2023-01-15T04:43:19;5.72;;;4.78;;
43996;SDS011;34318;45.818;15.964;2023-01-15T04:46:05;6.03;;;5.13;;
43996;SDS011;34318;45.818;15.964;2023-01-15T04:48:32;5.40;;;4.90;;
43996;SDS011;34318;45.818;15.964;2023-01-15T04:51:02;6.00;;;5.20;;
43996;SDS011;34318;45.818;15.964;2023-01-15T04:53:30;5.28;;;4.78;;
43996;SDS011;34318;45.818;15.964;2023-01-15T04:56:00;5.45;;;4.95;;
43996;SDS011;34318;45.818;15.964;2023-01-15T04:58:28;6.15;;;5.57;;
43996;SDS011;34318;45.818;15.964;2023-01-15T05:00:55;5.40;;;4.90;;
43996;SDS011;34318;45.818;15.964;2023-01-15T05:03:23;5.85;;;4.85;;
43996;SDS011;34318;45.818;15.964;2023-01-15T05:05:50;5.80;;;5.30;;
43996;SDS011;34318;45.818;15.964;2023-01-15T05:08:17;5.13;;;4.63;;
43996;SDS011;34318;45.818;15.964;2023-01-15T05:10:44;6.25;;;5.10;;
43996;SDS011;34318;45.818;15.964;2023-01-15T05:13:11;6.55;;;4.90;;
43996;SDS011;34318;45.818;15.964;2023-01-15T05:15:39;5.63;;;5.10;;
43996;SDS011;34318;45.818;15.964;2023-01-15T05:18:07;5.57;;;4.85;;
43996;SDS011;34318;45.818;15.964;2023-01-15T05:20:35;5.38;;;4.88;;
43996;SDS011;34318;45.818;15.964;2023-01-15T05:23:03;6.80;;;5.07;;
43996;SDS011;34318;45.818;15.964;2023-01-15T05:25:30;5.45;;;4.95;;
43996;SDS011;34318;45.818;15.964;2023-01-15T05:27:57;5.70;;;5.18;;
43996;SDS011;34318;45.818;15.964;2023-01-15T05:30:24;5.97;;;5.18;;
43996;SDS011;34318;45.818;15.964;2023-01-15T05:32:51;5.57;;;4.85;;
43996;SDS011;34318;45.818;15.964;2023-01-15T05:35:19;5.35;;;4.70;;
43996;SDS011;34318;45.818;15.964;2023-01-15T05:37:46;5.38;;;4.88;;
43996;SDS011;34318;45.818;15.964;2023-01-15T05:40:13;6.00;;;5.07;;
43996;SDS011;34318;45.818;15.964;2023-01-15T05:42:40;7.28;;;5.70;;
43996;SDS011;34318;45.818;15.964;2023-01-15T05:45:07;5.75;;;5.25;;
43996;SDS011;34318;45.818;15.964;2023-01-15T05:47:35;6.55;;;4.90;;
43996;SDS011;34318;45.818;15.964;2023-01-15T05:50:02;5.45;;;4.85;;
43996;SDS011;34318;45.818;15.964;2023-01-15T05:52:29;6.05;;;5.45;;
43996;SDS011;34318;45.818;15.964;2023-01-15T05:54:56;6.00;;;5.45;;
43996;SDS011;34318;45.818;15.964;2023-01-15T05:57:23;7.43;;;5.70;;
43996;SDS011;34318;45.818;15.964;2023-01-15T05:59:51;5.03;;;4.55;;
43996;SDS011;34318;45.818;15.964;2023-01-15T06:02:19;5.50;;;5.00;;
43996;SDS011;34318;45.818;15.964;2023-01-15T06:04:46;5.30;;;4.78;;
43996;SDS011;34318;45.818;15.964;2023-01-15T06:07:14;6.50;;;5.90;;
43996;SDS011;34318;45.818;15.964;2023-01-15T06:09:43;5.55;;;5.05;;
43996;SDS011;34318;45.818;15.964;2023-01-15T06:12:10;5.97;;;5.05;;
43996;SDS011;34318;45.818;15.964;2023-01-15T06:14:37;5.68;;;5.18;;
43996;SDS011;34318;45.818;15.964;2023-01-15T06:17:05;5.63;;;5.13;;
43996;SDS011;34318;45.818;15.964;2023-01-15T06:19:32;7.35;;;5.63;;
43996;SDS011;34318;45.818;15.964;2023-01-15T06:21:59;6.40;;;5.20;;
43996;SDS011;34318;45.818;15.964;2023-01-15T06:24:26;6.55;;;5.20;;
43996;SDS011;34318;45.818;15.964;2023-01-15T06:26:53;5.35;;;4.93;;
43996;SDS011;34318;45.818;15.964;2023-01-15T06:29:21;6.00;;;5.40;;
43996;SDS011;34318;45.818;15.964;2023-01-15T06:31:48;6.05;;;5.45;;
43996;SDS011;34318;45.818;15.964;2023-01-15T06:34:15;6.05;;;5.45;;
43996;SDS011;34318;45.818;15.964;2023-01-15T06:36:42;5.93;;;5.43;;
43996;SDS011;34318;45.818;15.964;2023-01-15T06:39:10;5.55;;;5.05;;
43996;SDS011;34318;45.818;15.964;2023-01-15T06:41:37;5.93;;;5.43;;
43996;SDS011;34318;45.818;15.964;2023-01-15T06:44:23;7.25;;;5.70;;
43996;SDS011;34318;45.818;15.964;2023-01-15T06:47:12;5.75;;;5.28;;
43996;SDS011;34318;45.818;15.964;2023-01-15T06:49:53;6.05;;;5.45;;
43996;SDS011;34318;45.818;15.964;2023-01-15T06:52:22;5.95;;;5.45;;
43996;SDS011;34318;45.818;15.964;2023-01-15T06:54:49;5.25;;;4.75;;
43996;SDS011;34318;45.818;15.964;2023-01-15T06:57:16;6.10;;;5.40;;
43996;SDS011;34318;45.818;15.964;2023-01-15T06:59:47;5.85;;;5.35;;
43996;SDS011;34318;45.818;15.964;2023-01-15T07:02:14;6.38;;;5.78;;
43996;SDS011;34318;45.818;15.964;2023-01-15T07:04:43;6.72;;;5.45;;
43996;SDS011;34318;45.818;15.964;2023-01-15T07:07:10;5.50;;;5.00;;
43996;SDS011;34318;45.818;15.964;2023-01-15T07:09:38;5.70;;;5.20;;
43996;SDS011;34318;45.818;15.964;2023-01-15T07:12:05;7.00;;;5.18;;
43996;SDS011;34318;45.818;15.964;2023-01-15T07:14:32;6.20;;;5.00;;
43996;SDS011;34318;45.818;15.964;2023-01-15T07:16:59;8.10;;;5.50;;
43996;SDS011;34318;45.818;15.964;2023-01-15T07:19:27;5.68;;;5.18;;
43996;SDS011;34318;45.818;15.964;2023-01-15T07:21:54;5.90;;;5.40;;
43996;SDS011;34318;45.818;15.964;2023-01-15T07:24:21;5.30;;;4.82;;
43996;SDS011;34318;45.818;15.964;2023-01-15T07:26:48;6.80;;;5.93;;
43996;SDS011;34318;45.818;15.964;2023-01-15T07:29:15;5.57;;;4.45;;
43996;SDS011;34318;45.818;15.964;2023-01-15T07:31:43;6.05;;;5.45;;
43996;SDS011;34318;45.818;15.964;2023-01-15T07:34:10;5.10;;;4.50;;
43996;SDS011;34318;45.818;15.964;2023-01-15T07:36:37;5.03;;;4.63;;
43996;SDS011;34318;45.818;15.964;2023-01-15T07:39:05;5.32;;;4.82;;
43996;SDS011;34318;45.818;15.964;2023-01-15T07:41:32;5.50;;;4.90;;
43996;SDS011;34318;45.818;15.964;2023-01-15T07:44:18;5.13;;;4.63;;
43996;SDS011;34318;45.818;15.964;2023-01-15T07:47:08;5.28;;;4.78;;
43996;SDS011;34318;45.818;15.964;2023-01-15T07:49:59;5.85;;;4.90;;
43996;SDS011;34318;45.818;15.964;2023-01-15T07:52:26;5.00;;;4.50;;
43996;SDS011;34318;45.818;15.964;2023-01-15T07:54:54;5.38;;;4.88;;
43996;SDS011;34318;45.818;15.964;2023-01-15T07:57:21;5.45;;;4.70;;
43996;SDS011;34318;45.818;15.964;2023-01-15T07:59:48;7.30;;;6.13;;
43996;SDS011;34318;45.818;15.964;2023-01-15T08:02:16;7.40;;;5.50;;
43996;SDS011;34318;45.818;15.964;2023-01-15T08:04:44;7.35;;;5.55;;
43996;SDS011;34318;45.818;15.964;2023-01-15T08:07:13;6.95;;;5.43;;
43996;SDS011;34318;45.818;15.964;2023-01-15T08:09:41;6.55;;;5.25;;
43996;SDS011;34318;45.818;15.964;2023-01-15T08:12:08;7.30;;;5.40;;
43996;SDS011;34318;45.818;15.964;2023-01-15T08:14:55;6.18;;;5.43;;
43996;SDS011;34318;45.818;15.964;2023-01-15T08:17:45;10.40;;;5.68;;
43996;SDS011;34318;45.818;15.964;2023-01-15T08:20:14;6.68;;;5.35;;
43996;SDS011;34318;45.818;15.964;2023-01-15T08:22:42;8.75;;;5.70;;
43996;SDS011;34318;45.818;15.964;2023-01-15T08:25:10;7.80;;;6.20;;
43996;SDS011;34318;45.818;15.964;2023-01-15T08:27:38;10.07;;;6.75;;
43996;SDS011;34318;45.818;15.964;2023-01-15T08:30:07;7.00;;;6.30;;
43996;SDS011;34318;45.818;15.964;2023-01-15T08:32:34;6.65;;;5.95;;
43996;SDS011;34318;45.818;15.964;2023-01-15T08:35:02;9.18;;;6.85;;
43996;SDS011;34318;45.818;15.964;2023-01-15T08:37:29;7.57;;;6.22;;
43996;SDS011;34318;45.818;15.964;2023-01-15T08:39:56;9.25;;;5.97;;
43996;SDS011;34318;45.818;15.964;2023-01-15T08:42:23;10.43;;;7.53;;
43996;SDS011;34318;45.818;15.964;2023-01-15T08:44:51;9.65;;;7.88;;
43996;SDS011;34318;45.818;15.964;2023-01-15T08:47:18;15.50;;;8.35;;
43996;SDS011;34318;45.818;15.964;2023-01-15T08:49:45;8.55;;;7.32;;
43996;SDS011;34318;45.818;15.964;2023-01-15T08:52:16;13.02;;;7.85;;
43996;SDS011;34318;45.818;15.964;2023-01-15T08:54:43;15.30;;;7.60;;
43996;SDS011;34318;45.818;15.964;2023-01-15T08:57:10;14.77;;;8.23;;
43996;SDS011;34318;45.818;15.964;2023-01-15T08:59:38;8.60;;;7.50;;
43996;SDS011;34318;45.818;15.964;2023-01-15T09:02:10;13.38;;;7.57;;
43996;SDS011;34318;45.818;15.964;2023-01-15T09:04:37;10.73;;;7.97;;
43996;SDS011;34318;45.818;15.964;2023-01-15T09:07:04;10.75;;;7.80;;
43996;SDS011;34318;45.818;15.964;2023-01-15T09:09:32;13.20;;;7.93;;
43996;SDS011;34318;45.818;15.964;2023-01-15T09:12:00;9.15;;;7.63;;
43996;SDS011;34318;45.818;15.964;2023-01-15T09:14:27;11.68;;;7.65;;
43996;SDS011;34318;45.818;15.964;2023-01-15T09:17:14;18.40;;;8.32;;
43996;SDS011;34318;45.818;15.964;2023-01-15T09:19:42;10.07;;;7.05;;
43996;SDS011;34318;45.818;15.964;2023-01-15T09:22:10;8.82;;;7.88;;
43996;SDS011;34318;45.818;15.964;2023-01-15T09:24:37;9.57;;;8.15;;
43996;SDS011;34318;45.818;15.964;2023-01-15T09:27:04;10.15;;;8.00;;
43996;SDS011;34318;45.818;15.964;2023-01-15T09:29:31;15.60;;;8.38;;
43996;SDS011;34318;45.818;15.964;2023-01-15T09:31:59;8.82;;;7.88;;
43996;SDS011;34318;45.818;15.964;2023-01-15T09:34:27;10.88;;;7.80;;
43996;SDS011;34318;45.818;15.964;2023-01-15T09:36:54;9.35;;;6.95;;
43996;SDS011;34318;45.818;15.964;2023-01-15T09:39:21;13.18;;;7.57;;
43996;SDS011;34318;45.818;15.964;2023-01-15T09:44:48;11.20;;;7.38;;
43996;SDS011;34318;45.818;15.964;2023-01-15T09:55:28;14.15;;;9.77;;
43996;SDS011;34318;45.818;15.964;2023-01-15T09:57:57;14.73;;;8.73;;
43996;SDS011;34318;45.818;15.964;2023-01-15T10:00:26;10.82;;;7.97;;
43996;SDS011;34318;45.818;15.964;2023-01-15T10:05:28;9.52;;;8.27;;
43996;SDS011;34318;45.818;15.964;2023-01-15T10:10:32;17.23;;;8.25;;
43996;SDS011;34318;45.818;15.964;2023-01-15T10:13:06;14.77;;;8.13;;
43996;SDS011;34318;45.818;15.964;2023-01-15T10:15:35;10.48;;;8.82;;
43996;SDS011;34318;45.818;15.964;2023-01-15T10:18:03;14.98;;;8.05;;
43996;SDS011;34318;45.818;15.964;2023-01-15T10:25:54;13.88;;;8.60;;
43996;SDS011;34318;45.818;15.964;2023-01-15T10:28:30;11.68;;;8.43;;
43996;SDS011;34318;45.818;15.964;2023-01-15T10:31:02;12.88;;;7.72;;
43996;SDS011;34318;45.818;15.964;2023-01-15T10:36:20;13.00;;;8.07;;
43996;SDS011;34318;45.818;15.964;2023-01-15T10:39:03;15.50;;;8.20;;
43996;SDS011;34318;45.818;15.964;2023-01-15T10:41:42;11.35;;;8.05;;
43996;SDS011;34318;45.818;15.964;2023-01-15T10:44:16;12.30;;;8.38;;
43996;SDS011;34318;45.818;15.964;2023-01-15T10:46:48;13.65;;;7.55;;
43996;SDS011;34318;45.818;15.964;2023-01-15T10:49:21;10.27;;;8.38;;
43996;SDS011;34318;45.818;15.964;2023-01-15T10:51:51;8.18;;;7.38;;
43996;SDS011;34318;45.818;15.964;2023-01-15T10:54:28;16.20;;;8.32;;
43996;SDS011;34318;45.818;15.964;2023-01-15T10:59:38;11.63;;;7.25;;
43996;SDS011;34318;45.818;15.964;2023-01-15T11:04:54;9.18;;;7.50;;
43996;SDS011;34318;45.818;15.964;2023-01-15T11:07:22;9.18;;;7.75;;
43996;SDS011;34318;45.818;15.964;2023-01-15T11:09:53;12.27;;;7.90;;
43996;SDS011;34318;45.818;15.964;2023-01-15T11:12:27;9.02;;;7.43;;
43996;SDS011;34318;45.818;15.964;2023-01-15T11:15:14;9.25;;;7.03;;
43996;SDS011;34318;45.818;15.964;2023-01-15T11:18:01;10.80;;;8.45;;
43996;SDS011;34318;45.818;15.964;2023-01-15T11:23:18;14.00;;;7.85;;
43996;SDS011;34318;45.818;15.964;2023-01-15T11:25:53;10.23;;;8.40;;
43996;SDS011;34318;45.818;15.964;2023-01-15T11:28:37;12.88;;;10.10;;
43996;SDS011;34318;45.818;15.964;2023-01-15T11:31:12;20.52;;;15.35;;
43996;SDS011;34318;45.818;15.964;2023-01-15T11:33:39;32.97;;;17.30;;
43996;SDS011;34318;45.818;15.964;2023-01-15T11:36:17;43.05;;;24.27;;
43996;SDS011;34318;45.818;15.964;2023-01-15T11:38:47;34.08;;;18.85;;
43996;SDS011;34318;45.818;15.964;2023-01-15T11:41:16;30.70;;;15.75;;
43996;SDS011;34318;45.818;15.964;2023-01-15T11:43:52;22.85;;;12.98;;
43996;SDS011;34318;45.818;15.964;2023-01-15T11:46:38;22.25;;;14.02;;
43996;SDS011;34318;45.818;15.964;2023-01-15T11:49:25;17.70;;;14.02;;
43996;SDS011;34318;45.818;15.964;2023-01-15T11:54:39;20.85;;;18.65;;
43996;SDS011;34318;45.818;15.964;2023-01-15T11:57:07;21.98;;;19.35;;
43996;SDS011;34318;45.818;15.964;2023-01-15T11:59:36;20.38;;;17.85;;
43996;SDS011;34318;45.818;15.964;2023-01-15T12:02:10;23.75;;;18.48;;
43996;SDS011;34318;45.818;15.964;2023-01-15T12:04:48;18.23;;;15.40;;
43996;SDS011;34318;45.818;15.964;2023-01-15T12:07:20;19.17;;;14.48;;
43996;SDS011;34318;45.818;15.964;2023-01-15T12:22:54;16.00;;;12.73;;
43996;SDS011;34318;45.818;15.964;2023-01-15T12:25:32;16.52;;;13.13;;
43996;SDS011;34318;45.818;15.964;2023-01-15T12:28:05;77.60;;;70.03;;
43996;SDS011;34318;45.818;15.964;2023-01-15T12:33:24;115.00;;;104.32;;
43996;SDS011;34318;45.818;15.964;2023-01-15T12:36:01;107.32;;;97.20;;
43996;SDS011;34318;45.818;15.964;2023-01-15T12:38:39;104.68;;;95.05;;
43996;SDS011;34318;45.818;15.964;2023-01-15T12:41:51;96.82;;;87.45;;
43996;SDS011;34318;45.818;15.964;2023-01-15T12:44:21;170.63;;;154.30;;
43996;SDS011;34318;45.818;15.964;2023-01-15T12:47:12;227.50;;;207.82;;
43996;SDS011;34318;45.818;15.964;2023-01-15T12:49:45;203.48;;;185.48;;
43996;SDS011;34318;45.818;15.964;2023-01-15T12:52:15;185.35;;;168.57;;
43996;SDS011;34318;45.818;15.964;2023-01-15T12:54:51;168.52;;;152.70;;
43996;SDS011;34318;45.818;15.964;2023-01-15T12:57:24;171.70;;;155.95;;
43996;SDS011;34318;45.818;15.964;2023-01-15T12:59:59;157.90;;;143.48;;
43996;SDS011;34318;45.818;15.964;2023-01-15T13:02:28;157.10;;;142.65;;
43996;SDS011;34318;45.818;15.964;2023-01-15T13:05:15;155.55;;;140.77;;
43996;SDS011;34318;45.818;15.964;2023-01-15T13:08:05;148.95;;;134.63;;
43996;SDS011;34318;45.818;15.964;2023-01-15T13:10:30;141.63;;;128.55;;
43996;SDS011;34318;45.818;15.964;2023-01-15T13:13:19;145.52;;;132.20;;
43996;SDS011;34318;45.818;15.964;2023-01-15T13:21:13;287.17;;;263.08;;
43996;SDS011;34318;45.818;15.964;2023-01-15T13:33:49;222.43;;;203.25;;
43996;SDS011;34318;45.818;15.964;2023-01-15T13:36:18;293.45;;;268.25;;
43996;SDS011;34318;45.818;15.964;2023-01-15T13:38:47;288.27;;;263.35;;
43996;SDS011;34318;45.818;15.964;2023-01-15T13:41:17;349.15;;;318.08;;
43996;SDS011;34318;45.818;15.964;2023-01-15T13:44:05;366.17;;;335.42;;
43996;SDS011;34318;45.818;15.964;2023-01-15T13:46:32;333.17;;;304.67;;
43996;SDS011;34318;45.818;15.964;2023-01-15T13:48:59;324.35;;;296.95;;
43996;SDS011;34318;45.818;15.964;2023-01-15T13:51:28;322.13;;;294.98;;
43996;SDS011;34318;45.818;15.964;2023-01-15T13:53:56;306.52;;;280.48;;
43996;SDS011;34318;45.818;15.964;2023-01-15T13:58:57;306.42;;;280.67;;
43996;SDS011;34318;45.818;15.964;2023-01-15T14:01:31;274.65;;;251.73;;
43996;SDS011;34318;45.818;15.964;2023-01-15T14:06:36;266.77;;;244.25;;
43996;SDS011;34318;45.818;15.964;2023-01-15T14:09:04;272.75;;;250.00;;
43996;SDS011;34318;45.818;15.964;2023-01-15T14:19:42;415.92;;;380.20;;
43996;SDS011;34318;45.818;15.964;2023-01-15T14:25:18;348.42;;;319.20;;
43996;SDS011;34318;45.818;15.964;2023-01-15T14:35:54;324.98;;;297.52;;
43996;SDS011;34318;45.818;15.964;2023-01-15T14:38:23;317.25;;;290.90;;
43996;SDS011;34318;45.818;15.964;2023-01-15T14:40:58;331.55;;;303.88;;
43996;SDS011;34318;45.818;15.964;2023-01-15T14:43:30;334.13;;;306.23;;
43996;SDS011;34318;45.818;15.964;2023-01-15T14:48:38;331.40;;;303.45;;
43996;SDS011;34318;45.818;15.964;2023-01-15T14:51:12;328.25;;;300.77;;
43996;SDS011;34318;45.818;15.964;2023-01-15T14:56:16;308.90;;;283.95;;
43996;SDS011;34318;45.818;15.964;2023-01-15T14:58:48;310.83;;;284.95;;
43996;SDS011;34318;45.818;15.964;2023-01-15T15:03:54;302.83;;;277.85;;
43996;SDS011;34318;45.818;15.964;2023-01-15T15:08:50;292.08;;;268.00;;
43996;SDS011;34318;45.818;15.964;2023-01-15T15:11:22;285.95;;;262.55;;
43996;SDS011;34318;45.818;15.964;2023-01-15T15:14:09;279.15;;;256.17;;
43996;SDS011;34318;45.818;15.964;2023-01-15T15:16:40;293.88;;;267.73;;
43996;SDS011;34318;45.818;15.964;2023-01-15T15:19:28;271.75;;;248.90;;
43996;SDS011;34318;45.818;15.964;2023-01-15T15:21:57;275.83;;;252.25;;
43996;SDS011;34318;45.818;15.964;2023-01-15T15:24:28;263.58;;;241.18;;
43996;SDS011;34318;45.818;15.964;2023-01-15T15:26:56;262.50;;;240.25;;
43996;SDS011;34318;45.818;15.964;2023-01-15T15:29:23;259.00;;;236.82;;
43996;SDS011;34318;45.818;15.964;2023-01-15T15:31:51;257.83;;;236.10;;
43996;SDS011;34318;45.818;15.964;2023-01-15T15:34:29;257.95;;;235.82;;
43996;SDS011;34318;45.818;15.964;2023-01-15T15:36:58;255.02;;;233.65;;
43996;SDS011;34318;45.818;15.964;2023-01-15T15:42:00;243.73;;;222.68;;
43996;SDS011;34318;45.818;15.964;2023-01-15T15:44:54;246.65;;;225.93;;
43996;SDS011;34318;45.818;15.964;2023-01-15T15:47:41;243.00;;;222.52;;
43996;SDS011;34318;45.818;15.964;2023-01-15T15:52:56;237.10;;;216.57;;
43996;SDS011;34318;45.818;15.964;2023-01-15T15:55:24;235.82;;;216.23;;
43996;SDS011;34318;45.818;15.964;2023-01-15T15:57:55;225.32;;;206.52;;
43996;SDS011;34318;45.818;15.964;2023-01-15T16:00:30;230.63;;;211.55;;
43996;SDS011;34318;45.818;15.964;2023-01-15T16:03:00;224.00;;;205.18;;
43996;SDS011;34318;45.818;15.964;2023-01-15T16:05:29;220.77;;;202.38;;
43996;SDS011;34318;45.818;15.964;2023-01-15T16:10:43;217.65;;;198.90;;
43996;SDS011;34318;45.818;15.964;2023-01-15T16:13:15;216.82;;;198.73;;
43996;SDS011;34318;45.818;15.964;2023-01-15T16:15:45;216.98;;;198.80;;
43996;SDS011;34318;45.818;15.964;2023-01-15T16:18:18;209.57;;;191.82;;
43996;SDS011;34318;45.818;15.964;2023-01-15T16:20:48;211.88;;;193.95;;
43996;SDS011;34318;45.818;15.964;2023-01-15T16:23:20;204.60;;;187.25;;
43996;SDS011;34318;45.818;15.964;2023-01-15T16:25:58;205.57;;;187.93;;
43996;SDS011;34318;45.818;15.964;2023-01-15T16:28:32;207.60;;;189.75;;
43996;SDS011;34318;45.818;15.964;2023-01-15T16:31:00;204.32;;;186.63;;
43996;SDS011;34318;45.818;15.964;2023-01-15T16:33:28;199.75;;;182.73;;
43996;SDS011;34318;45.818;15.964;2023-01-15T16:35:58;194.50;;;177.25;;
43996;SDS011;34318;45.818;15.964;2023-01-15T16:38:31;192.90;;;176.57;;
43996;SDS011;34318;45.818;15.964;2023-01-15T16:40:59;191.93;;;175.13;;
43996;SDS011;34318;45.818;15.964;2023-01-15T16:43:27;196.75;;;179.05;;
43996;SDS011;34318;45.818;15.964;2023-01-15T16:48:33;185.20;;;168.95;;
43996;SDS011;34318;45.818;15.964;2023-01-15T16:51:37;185.77;;;168.95;;
43996;SDS011;34318;45.818;15.964;2023-01-15T16:54:00;177.82;;;161.30;;
43996;SDS011;34318;45.818;15.964;2023-01-15T17:01:50;178.15;;;161.68;;
43996;SDS011;34318;45.818;15.964;2023-01-15T17:04:27;173.52;;;158.00;;